createdAt,value
2023-04-15T00:40:26.301Z,101002.16
2023-04-15T00:46:07.599Z,101006.31
2023-04-15T00:51:50.455Z,101012.09
2023-04-15T00:57:33.684Z,101003.34
2023-04-15T01:03:16.382Z,101003.34
2023-04-15T01:09:00.017Z,101006.13
2023-04-15T01:14:43.013Z,101012.50
2023-04-15T01:20:26.175Z,101009.53
2023-04-15T01:26:09.561Z,101012.84
2023-04-15T01:31:53.861Z,101008.22
2023-04-15T01:37:36.960Z,101005.78
2023-04-15T01:43:23.952Z,101008.00
2023-04-15T01:48:30.283Z,100997.81
2023-04-15T01:58:38.118Z,101009.94
2023-04-15T02:09:11.191Z,101008.06
2023-04-15T02:17:09.213Z,101013.03
2023-04-15T02:27:49.411Z,101015.53
2023-04-15T02:32:52.408Z,101012.53
2023-04-15T02:37:54.771Z,101010.66
2023-04-15T02:42:56.908Z,101005.75
2023-04-15T02:48:01.526Z,101021.41
2023-04-15T02:53:04.417Z,101013.47
2023-04-15T02:58:07.176Z,101012.63
2023-04-15T03:03:10.957Z,101013.75
2023-04-15T03:08:13.070Z,101012.41
2023-04-15T03:13:14.995Z,101006.66
2023-04-15T03:18:18.016Z,101012.72
2023-04-15T03:23:20.116Z,101016.56
2023-04-15T03:28:23.577Z,101017.16
2023-04-15T03:33:26.608Z,101016.91
2023-04-15T03:38:28.857Z,101012.81
2023-04-15T03:43:30.912Z,101018.03
2023-04-15T03:48:33.000Z,101025.72
2023-04-15T03:53:35.007Z,101028.75
2023-04-15T03:58:37.096Z,101028.75
2023-04-15T04:04:04.997Z,101034.00
2023-04-15T04:09:25.951Z,101039.75
2023-04-15T04:14:29.853Z,101060.09
2023-04-15T04:19:32.093Z,101044.78
2023-04-15T04:24:34.011Z,101042.63
2023-04-15T04:29:36.181Z,101051.94
2023-04-15T04:34:38.596Z,101044.84
2023-04-15T04:39:41.860Z,101051.94
2023-04-15T04:44:44.294Z,101043.44
2023-04-15T04:49:46.511Z,101048.94
2023-04-15T04:54:48.518Z,101056.91
2023-04-15T04:59:51.301Z,101054.16
2023-04-15T05:04:54.753Z,101046.19
2023-04-15T05:09:56.878Z,101053.06
2023-04-15T05:14:58.855Z,101064.84
2023-04-15T05:20:02.094Z,101059.66
2023-04-15T05:25:04.488Z,101073.34
2023-04-15T05:30:07.451Z,101077.47
2023-04-15T05:35:09.851Z,101073.09
2023-04-15T05:40:13.237Z,101081.84
2023-04-15T05:45:19.655Z,101086.22
2023-04-15T05:50:21.806Z,101093.06
2023-04-15T05:55:23.689Z,101107.59
2023-04-15T06:00:26.143Z,101110.31
2023-04-15T06:05:28.348Z,101098.25
2023-04-15T06:10:30.986Z,101106.69
2023-04-15T06:15:32.884Z,101100.66
2023-04-15T06:20:36.982Z,101118.19
2023-04-15T06:25:39.004Z,101123.91
2023-04-15T06:30:41.202Z,101120.06
2023-04-15T06:35:43.354Z,101118.13
2023-04-15T06:40:46.034Z,101127.13
2023-04-15T06:45:48.139Z,101121.34
2023-04-15T06:50:50.306Z,101139.94
2023-04-15T06:55:52.308Z,101152.41
2023-04-15T07:00:54.573Z,101153.56
2023-04-15T07:05:56.877Z,101161.13
2023-04-15T07:10:58.743Z,101165.06
2023-04-15T07:16:00.857Z,101147.50
2023-04-15T07:21:04.475Z,101128.72
2023-04-15T07:26:06.497Z,101148.72
2023-04-15T07:31:08.435Z,101150.78
2023-04-15T07:36:11.047Z,101151.97
2023-04-15T07:41:13.295Z,101172.66
2023-04-15T07:46:15.577Z,101179.50
2023-04-15T07:51:17.925Z,101176.06
2023-04-15T07:56:20.533Z,101177.81
2023-04-15T08:01:23.061Z,101174.31
2023-04-15T08:06:25.488Z,101176.56
2023-04-15T08:11:27.908Z,101164.22
2023-04-15T08:16:30.207Z,101171.56
2023-04-15T08:21:32.489Z,101158.69
2023-04-15T08:26:34.655Z,101163.41
2023-04-15T08:31:37.223Z,101163.50
2023-04-15T08:36:40.903Z,101157.25
2023-04-15T08:41:48.059Z,101144.50
2023-04-15T08:46:51.835Z,101151.72
2023-04-15T08:51:56.676Z,101143.19
2023-04-15T08:57:02.688Z,101147.94
2023-04-15T09:02:04.998Z,101146.84
2023-04-15T09:07:07.517Z,101147.19
2023-04-15T09:12:10.584Z,101134.31
2023-04-15T09:17:13.027Z,101141.31
2023-04-15T09:22:15.669Z,101126.66
2023-04-15T09:27:21.223Z,101139.03
2023-04-15T09:32:24.975Z,101131.53
2023-04-15T09:37:37.038Z,101124.53
2023-04-15T09:42:58.036Z,101118.63
2023-04-15T09:48:22.826Z,101131.56
2023-04-15T09:53:26.207Z,101137.19
2023-04-15T09:58:33.390Z,101142.88
2023-04-15T10:03:39.111Z,101143.16
2023-04-15T10:08:41.968Z,101134.59
2023-04-15T10:13:49.267Z,101141.75
2023-04-15T10:18:58.621Z,101121.97
2023-04-15T10:24:03.881Z,101123.72
2023-04-15T10:29:06.601Z,101113.72
2023-04-15T10:34:09.539Z,101117.78
2023-04-15T10:39:34.998Z,101119.63
2023-04-15T10:44:38.981Z,101117.38
2023-04-15T10:49:51.099Z,101108.41
2023-04-15T10:55:23.745Z,101108.28
2023-04-15T11:00:27.053Z,101106.13
2023-04-15T11:05:52.414Z,101090.81
2023-04-15T11:10:54.657Z,101085.97
2023-04-15T11:15:58.562Z,101081.00
2023-04-15T11:21:06.105Z,101085.41
2023-04-15T11:26:11.771Z,101075.97
2023-04-15T11:31:16.539Z,101077.63
2023-04-15T11:36:18.707Z,101074.66
2023-04-15T11:41:22.672Z,101053.81
2023-04-15T11:46:34.141Z,101053.59
2023-04-15T11:51:36.538Z,101043.03
2023-04-15T11:56:38.819Z,101034.56
2023-04-15T12:01:43.739Z,101044.00
2023-04-15T12:06:46.065Z,101042.53
2023-04-15T12:11:55.390Z,101025.50
2023-04-15T12:17:03.427Z,101031.22
2023-04-15T12:22:22.529Z,101040.31
2023-04-15T12:27:29.275Z,101038.09
2023-04-15T12:32:36.036Z,101031.53
2023-04-15T12:37:38.165Z,101031.53
2023-04-15T12:42:40.624Z,101039.28
2023-04-15T12:47:42.805Z,101037.16
2023-04-15T12:52:45.233Z,101047.13
2023-04-15T12:57:47.355Z,101052.28
2023-04-15T13:02:49.696Z,101047.41
2023-04-15T13:07:51.984Z,101037.47
2023-04-15T13:12:54.324Z,101044.44
2023-04-15T13:17:56.839Z,101030.13
2023-04-15T13:23:03.319Z,101009.56
2023-04-15T13:28:05.547Z,101032.94
2023-04-15T13:33:07.700Z,101031.94
2023-04-15T13:38:09.852Z,101023.94
2023-04-15T13:43:12.557Z,101009.47
2023-04-15T13:48:14.766Z,101024.47
2023-04-15T13:53:16.950Z,101024.44
2023-04-15T13:58:19.087Z,101022.03
2023-04-15T14:03:21.337Z,101038.44
2023-04-15T14:08:25.017Z,101028.84
2023-04-15T14:13:27.218Z,101040.09
2023-04-15T14:18:30.474Z,101037.88
2023-04-15T14:23:32.676Z,101043.72
2023-04-15T14:28:34.693Z,101053.28
2023-04-15T14:35:13.657Z,101037.78
2023-04-15T14:40:15.775Z,101057.94
2023-04-15T14:45:19.913Z,101057.66
2023-04-15T14:50:22.224Z,101052.44
2023-04-15T14:55:24.271Z,101064.28
2023-04-15T15:00:26.322Z,101064.06
2023-04-15T15:05:28.877Z,101079.06
2023-04-15T15:10:34.768Z,101077.56
2023-04-15T15:15:51.012Z,101082.34
2023-04-15T15:20:53.335Z,101080.31
2023-04-15T15:25:55.470Z,101085.44
2023-04-15T15:30:57.678Z,101095.69
2023-04-15T15:39:39.181Z,101096.69
2023-04-15T15:44:42.015Z,101110.78
2023-04-15T15:49:44.609Z,101117.31
2023-04-15T15:54:49.687Z,101123.25
2023-04-15T16:00:04.772Z,101119.78
2023-04-15T16:05:12.277Z,101134.81
2023-04-15T16:10:15.309Z,101135.72
2023-04-15T16:15:17.369Z,101143.16
2023-04-15T16:20:22.274Z,101153.75
2023-04-15T16:25:27.204Z,101154.53
2023-04-15T16:30:33.687Z,101161.22
2023-04-15T16:35:36.043Z,101166.53
2023-04-15T16:40:38.537Z,101171.25
2023-04-15T16:45:40.723Z,101185.31
2023-04-15T16:50:43.305Z,101176.00
2023-04-15T16:55:45.459Z,101195.31
2023-04-15T17:00:47.759Z,101198.94
2023-04-15T17:05:49.769Z,101211.81
2023-04-15T17:10:51.945Z,101219.75
2023-04-15T17:15:55.719Z,101211.03
2023-04-15T17:20:59.314Z,101214.41
2023-04-15T17:26:02.125Z,101229.44
2023-04-15T17:31:04.915Z,101238.97
2023-04-15T17:36:07.347Z,101228.84
2023-04-15T17:41:10.397Z,101230.91
2023-04-15T17:46:13.529Z,101228.47
2023-04-15T17:51:16.057Z,101232.47
2023-04-15T17:56:18.236Z,101237.91
2023-04-15T18:01:22.409Z,101244.91
2023-04-15T18:06:29.078Z,101254.56
2023-04-15T18:11:38.310Z,101261.47
2023-04-15T18:16:42.727Z,101254.22
2023-04-15T18:21:46.283Z,101256.72
2023-04-15T18:26:52.680Z,101265.19
2023-04-15T18:31:54.859Z,101262.75
2023-04-15T18:36:58.222Z,101276.19
2023-04-15T18:42:00.422Z,101278.13
2023-04-15T18:47:02.926Z,101288.59
2023-04-15T18:52:05.367Z,101295.78
2023-04-15T18:57:07.790Z,101296.91
2023-04-15T19:02:09.958Z,101315.91
2023-04-15T19:07:13.313Z,101324.97
2023-04-15T19:12:20.460Z,101337.09
2023-04-15T19:17:22.589Z,101345.91
2023-04-15T19:22:25.029Z,101343.16
2023-04-15T19:27:27.424Z,101342.63
2023-04-15T19:32:29.724Z,101367.66
2023-04-15T19:37:41.958Z,101380.88
2023-04-15T19:42:44.219Z,101391.06
2023-04-15T19:47:46.879Z,101384.72
2023-04-15T19:52:49.917Z,101390.53
2023-04-15T19:57:52.152Z,101402.63
2023-04-15T20:02:56.788Z,101400.16
2023-04-15T20:08:00.633Z,101409.47
2023-04-15T20:13:02.918Z,101414.16
2023-04-15T20:18:05.108Z,101440.00
2023-04-15T20:23:11.194Z,101452.09
2023-04-15T20:28:13.941Z,101450.50
2023-04-15T20:33:16.655Z,101458.78
2023-04-15T20:38:18.986Z,101457.94
2023-04-15T20:43:21.923Z,101468.66
2023-04-15T20:48:24.544Z,101478.56
2023-04-15T20:53:26.926Z,101488.50
2023-04-15T20:58:28.986Z,101500.06
2023-04-15T21:03:31.319Z,101516.00
2023-04-15T21:08:33.599Z,101509.97
2023-04-15T21:13:35.464Z,101513.00
2023-04-15T21:18:43.615Z,101514.38
2023-04-15T21:23:45.988Z,101540.19
2023-04-15T21:28:48.155Z,101553.13
2023-04-15T21:33:50.231Z,101564.66
2023-04-15T21:40:16.137Z,101574.28
2023-04-15T21:45:18.850Z,101577.59
2023-04-15T21:50:21.295Z,101566.31
2023-04-15T21:55:23.549Z,101568.81
2023-04-15T22:00:25.997Z,101572.13
2023-04-15T22:05:28.307Z,101561.97
2023-04-15T22:10:31.733Z,101569.41
2023-04-15T22:15:35.835Z,101572.72
2023-04-15T22:20:38.083Z,101566.16
2023-04-15T22:25:40.572Z,101571.38
2023-04-15T22:30:43.214Z,101582.06
2023-04-15T22:35:45.501Z,101571.38
2023-04-15T22:40:50.030Z,101589.22
2023-04-15T22:45:56.842Z,101587.59
2023-04-15T22:50:59.100Z,101583.19
2023-04-15T22:56:01.046Z,101583.75
2023-04-15T23:01:12.585Z,101587.03
2023-04-15T23:06:15.436Z,101579.91
2023-04-15T23:11:18.512Z,101595.81
2023-04-15T23:16:21.051Z,101602.66
2023-04-15T23:21:24.761Z,101596.03
2023-04-15T23:26:28.392Z,101585.88
2023-04-15T23:31:30.516Z,101579.03
2023-04-15T23:36:33.075Z,101582.59
2023-04-15T23:41:36.666Z,101594.66
2023-04-15T23:46:38.835Z,101608.38
2023-04-15T23:51:40.969Z,101607.53
2023-04-15T23:56:42.949Z,101608.91
